• Join FlightAware (Why Join?)
  • Login
  • US Flag 
07:02PM EDT


 

Airport Tracker/Info


-or-


 

Live Flight TrackerFlight Track Log ✈ ASQ5861 ✈ 24-Apr-2013 ✈ CYWG - KORD

Flight Track Log - Related Links

Times and Time Zones

All times are in EDT time to prevent confusion due to time zone crossing. See the ASQ5861 flight status page for this flight to view local times or setup timezone preferences in your user account.

Time Position Orientation Groundspeed Altitude Reporting Facility
EDT Latitude Longitude Course Direction KTS MPH feet Rate Location/Type
07:03PM 49.9000 -97.2500 297° West 140 161 1,700  Level Winnipeg Center
07:04PM 49.9167 -97.3000 297° West 190 219 3,800 2,040 Climbing Winnipeg Center
07:05PM 49.8667 -97.3333 203° Southwest 250 288 5,800 1,980 Climbing Winnipeg Center
07:06PM 49.8167 -97.2500 133° Southeast 280 322 7,900 2,400 Climbing Winnipeg Center
07:07PM 49.7667 -97.1500 128° Southeast 280 322 10,600 2,160 Climbing Winnipeg Center
07:08PM 49.7167 -97.0500 128° Southeast 300 345 12,200 1,680 Climbing Winnipeg Center
07:09PM 49.6500 -96.9667 141° Southeast 320 368 14,000 1,440 Climbing Winnipeg Center
07:10PM 49.5667 -96.8833 147° Southeast 340 391 15,100 1,080 Climbing Winnipeg Center
07:11PM 49.4833 -96.8167 153° Southeast 360 414 16,200 1,080 Climbing Winnipeg Center
07:12PM 49.3833 -96.7333 152° Southeast 370 426 17,300 1,020 Climbing Winnipeg Center
07:13PM 49.3000 -96.6333 142° Southeast 380 437 18,300 1,080 Climbing Winnipeg Center
07:14PM 49.2000 -96.5500 151° Southeast 390 449 19,500 1,200 Climbing Winnipeg Center
07:15PM 49.1167 -96.4500 142° Southeast 400 460 20,800 1,500 Climbing Winnipeg Center
07:16PM 49.0000 -96.3833 159° South 400 460 22,600 1,800 Climbing Winnipeg Center
07:17PM 48.9167 -96.2833 142° Southeast 390 449 24,400 1,500 Climbing Winnipeg Center
07:18PM 48.8333 -96.2000 147° Southeast 390 449 25,700 1,320 Climbing Winnipeg Center
07:19PM 48.7333 -96.1000 147° Southeast 390 449 27,100 1,080 Climbing Winnipeg Center
07:20PM 48.6939 -96.0750 157° South 397 457 27,700 1,020 Climbing Minneapolis Center
07:21PM 48.5781 -95.9686 149° Southeast 403 464 29,000 1,080 Climbing Minneapolis Center
07:22PM 48.4792 -95.8778 149° Southeast 411 473 30,000 900 Climbing Minneapolis Center
07:23PM 48.3786 -95.7875 149° Southeast 418 481 31,100 1,020 Climbing Minneapolis Center
07:24PM 48.2561 -95.6772 149° Southeast 425 489 32,400 1,140 Climbing Minneapolis Center
07:25PM 48.1536 -95.5825 148° Southeast 430 495 33,500 1,020 Climbing Minneapolis Center
07:26PM 48.0447 -95.4861 149° Southeast 432 497 34,600 720 Climbing Minneapolis Center
07:27PM 47.9417 -95.3944 149° Southeast 433 498 35,000 180 Climbing Minneapolis Center
07:28PM 47.8100 -95.2781 149° Southeast 451 519 35,000  Level Minneapolis Center
07:30PM 47.6964 -95.1761 149° Southeast 467 537 35,000  Level Minneapolis Center
07:31PM 47.5794 -95.0747 150° Southeast 481 554 35,000  Level Minneapolis Center
07:32PM 47.4658 -94.9719 149° Southeast 482 555 35,000  Level Minneapolis Center
07:33PM 47.3289 -94.8547 150° Southeast 479 551 35,000  Level Minneapolis Center
07:34PM 47.1928 -94.7383 150° Southeast 476 548 35,000  Level Minneapolis Center
07:35PM 47.0789 -94.6411 150° Southeast 476 548 35,000  Level Minneapolis Center
07:36PM 46.9647 -94.5436 150° Southeast 477 549 35,000  Level Minneapolis Center
07:37PM 46.8731 -94.4661 150° Southeast 478 550 35,000  Level Minneapolis Center
07:38PM 46.7589 -94.3683 150° Southeast 478 550 35,000  Level Minneapolis Center
07:39PM 46.6239 -94.2556 150° Southeast 474 545 35,000  Level Minneapolis Center
07:40PM 46.4908 -94.1447 150° Southeast 467 537 35,000  Level Minneapolis Center
07:41PM 46.3797 -94.0528 150° Southeast 464 534 35,000  Level Minneapolis Center
07:42PM 46.2636 -93.9767 156° South 464 534 35,000  Level Minneapolis Center
07:43PM 46.1436 -93.9133 160° South 462 532 35,000  Level Minneapolis Center
07:44PM 46.0225 -93.8442 158° South 465 535 35,000  Level Minneapolis Center
07:45PM 45.8569 -93.7528 159° South 461 531 35,000  Level Minneapolis Center
07:46PM 45.7369 -93.6911 160° South 457 526 35,000  Level Minneapolis Center
07:48PM 45.6192 -93.6269 159° South 458 527 35,000  Level Minneapolis Center
07:49PM 45.5003 -93.5547 157° South 463 533 35,000  Level Minneapolis Center
07:50PM 45.4175 -93.4053 128° Southeast 479 551 35,000  Level Minneapolis Center
07:51PM 45.3414 -93.2478 124° Southeast 484 557 35,000  Level Minneapolis Center
07:52PM 45.2489 -93.0575 125° Southeast 486 559 35,000  Level Minneapolis Center
07:53PM 45.1708 -92.8989 125° Southeast 488 562 35,000  Level Minneapolis Center
07:54PM 45.0939 -92.7436 125° Southeast 482 555 35,000  Level Minneapolis Center
07:55PM 45.0181 -92.5869 124° Southeast 481 554 35,000  Level Minneapolis Center
07:56PM 44.9411 -92.4331 125° Southeast 478 550 35,000  Level Minneapolis Center
07:57PM 44.8650 -92.2800 125° Southeast 477 549 35,000  Level Minneapolis Center
07:58PM 44.7875 -92.1294 126° Southeast 476 548 35,000  Level Minneapolis Center
07:59PM 44.6950 -91.9464 125° Southeast 477 549 35,000  Level Minneapolis Center
08:00PM 44.6186 -91.7939 125° Southeast 478 550 35,000  Level Minneapolis Center
08:01PM 44.5428 -91.6433 125° Southeast 476 548 35,000  Level Minneapolis Center
08:02PM 44.4653 -91.4981 127° Southeast 470 541 35,000 -420 Level Minneapolis Center
08:03PM 44.3847 -91.3589 129° Southeast 465 535 34,200 -1,020 Descending Minneapolis Center
08:04PM 44.2939 -91.2061 130° Southeast 470 541 32,900 -1,260 Descending Minneapolis Center
08:05PM 44.2117 -91.0694 130° Southeast 466 536 31,700 -960 Descending Minneapolis Center
08:06PM 44.1286 -90.9303 130° Southeast 468 539 31,000 -1,020 Descending Minneapolis Center
08:07PM 44.0253 -90.7592 130° Southeast 481 554 29,500 -1,440 Descending Minneapolis Center
08:08PM 43.9253 -90.5928 130° Southeast 472 543 27,800 -1,380 Descending Minneapolis Center
08:09PM 43.8428 -90.4600 131° Southeast 471 542 26,700 -1,140 Descending Minneapolis Center
08:10PM 43.7567 -90.3194 130° Southeast 468 539 25,500 -1,140 Descending Minneapolis Center
08:11PM 43.6742 -90.1844 130° Southeast 470 541 24,400 -780 Descending Minneapolis Center
08:12PM 43.5764 -90.0269 131° Southeast 466 536 24,000 -240 Descending Minneapolis Center
08:13PM 43.4922 -89.8917 131° Southeast 465 535 24,000  Level Minneapolis Center
08:14PM 43.4642 -89.8469 131° Southeast 468 539 24,000  Level Chicago Center
08:15PM 43.3792 -89.7111 131° Southeast 469 540 24,000 -480 Level Chicago Center
08:16PM 43.2811 -89.5553 131° Southeast 462 532 23,100 -1,560 Descending Chicago Center
08:17PM 43.1983 -89.4253 131° Southeast 456 525 20,800 -2,280 Descending Chicago Center
08:18PM 43.1053 -89.3264 142° Southeast 429 494 18,400 -2,520 Descending Chicago Center
08:19PM 42.9969 -89.2803 163° South 411 473 15,700 -2,520 Descending Chicago Center
08:20PM 42.8908 -89.2386 164° South 399 459 13,300 -1,320 Descending Chicago Center
08:21PM 42.7736 -89.1917 164° South 381 438 13,000 -180 Descending Chicago Center
08:22PM 42.6689 -89.1506 164° South 390 449 13,000  Level Chicago Center
08:23PM 42.5903 -89.0475 136° Southeast 401 461 13,000 -240 Level Chicago Center
08:24PM 42.5383 -88.9156 118° Southeast 398 458 12,600 -780 Descending Chicago Center
08:25PM 42.4881 -88.7878 118° Southeast 388 447 11,500 -1,200 Descending Chicago Center
08:26PM 42.4314 -88.6408 118° Southeast 379 436 10,200 -780 Descending Chicago Center
08:27PM 42.3833 -88.5203 118° Southeast 370 426 10,000 -120 Descending Chicago Center
08:28PM 42.3414 -88.3947 114° Southeast 369 425 10,000  Level Chicago Center
08:29PM 42.2750 -88.2781 128° Southeast 372 428 10,000  Level Chicago Center
08:30PM 42.2097 -88.1703 129° Southeast 372 428 10,000 -660 Level Chicago Center
08:31PM 42.1483 -88.0942 137° Southeast 309 356 8,700 -1,500 Descending Chicago Center
08:32PM 42.1000 -88.0167 130° Southeast 291 335 7,200 -960 Descending Chicago TRACON
08:33PM 42.1000 -87.9167 90° East 269 310 7,000 -420 Descending Chicago TRACON
08:34PM 42.1000 -87.8167 90° East 247 284 6,400 -1,140 Descending Chicago TRACON
08:35PM 42.1000 -87.7333 90° East 239 275 4,900 -1,200 Descending Chicago TRACON
08:36PM 42.0500 -87.6833 143° Southeast 220 253 4,000 -660 Descending Chicago TRACON
08:37PM 42.0167 -87.7000 200° South 199 229 3,600 -840 Descending Chicago TRACON
08:38PM 42.0000 -87.7667 251° West 185 213 2,500 -960 Descending Chicago TRACON
08:39PM 42.0000 -87.8333 270° West 136 157 1,700 -720 Descending Chicago TRACON
08:40PM 42.0000 -87.8833 270° West 124 143 1,000 -720 Descending Chicago TRACON
08:43PM 41.9817 -87.9067 223° Southwest  Level Estimated